createdAt,value
2023-03-12T00:00:01.560Z,27.00
2023-03-12T00:00:33.240Z,27.00
2023-03-12T00:01:34.624Z,27.00
2023-03-12T00:02:06.342Z,27.00
2023-03-12T00:02:38.254Z,27.00
2023-03-12T00:03:10.313Z,27.00
2023-03-12T00:03:42.122Z,27.00
2023-03-12T00:04:13.810Z,27.00
2023-03-12T00:04:45.490Z,27.00
2023-03-12T00:05:17.226Z,27.00
2023-03-12T00:05:48.901Z,27.00
2023-03-12T00:06:21.701Z,27.00
2023-03-12T00:06:53.485Z,27.00
2023-03-12T00:07:25.237Z,27.67
2023-03-12T00:07:59.884Z,28.00
2023-03-12T00:08:31.567Z,28.00
2023-03-12T00:09:04.748Z,28.00
2023-03-12T00:09:38.759Z,28.00
2023-03-12T00:10:11.249Z,28.00
2023-03-12T00:10:42.913Z,28.00
2023-03-12T00:11:17.458Z,28.00
2023-03-12T00:11:49.250Z,28.00
2023-03-12T00:12:20.951Z,28.00
2023-03-12T00:12:53.065Z,28.00
2023-03-12T00:13:24.826Z,28.00
2023-03-12T00:13:58.706Z,28.00
2023-03-12T00:14:30.577Z,28.00
2023-03-12T00:15:02.267Z,28.00
2023-03-12T00:15:39.075Z,28.00
2023-03-12T00:16:14.236Z,28.33
2023-03-12T00:16:46.179Z,29.00
2023-03-12T00:17:17.865Z,29.00
2023-03-12T00:17:50.084Z,29.00
2023-03-12T00:18:21.828Z,29.00
2023-03-12T00:18:55.474Z,29.00
2023-03-12T00:19:27.852Z,29.00
2023-03-12T00:19:59.565Z,29.00
2023-03-12T00:20:31.478Z,29.00
2023-03-12T00:21:03.257Z,29.00
2023-03-12T00:21:34.963Z,29.00
2023-03-12T00:22:06.662Z,29.00
2023-03-12T00:22:38.913Z,29.00
2023-03-12T00:23:10.585Z,29.00
2023-03-12T00:23:42.262Z,29.00
2023-03-12T00:24:14.121Z,29.00
2023-03-12T00:24:51.402Z,29.00
2023-03-12T00:25:23.124Z,29.00
2023-03-12T00:25:54.992Z,29.00
2023-03-12T00:26:26.691Z,28.67
2023-03-12T00:26:58.330Z,28.00
2023-03-12T00:27:30.013Z,28.00
2023-03-12T00:28:01.712Z,28.00
2023-03-12T00:28:35.154Z,28.00
2023-03-12T00:29:06.835Z,28.00
2023-03-12T00:29:38.543Z,28.00
2023-03-12T00:30:11.552Z,28.00
2023-03-12T00:30:43.905Z,28.00
2023-03-12T00:31:28.738Z,28.00
2023-03-12T00:32:00.526Z,28.00
2023-03-12T00:32:36.826Z,28.00
2023-03-12T00:33:08.519Z,28.00
2023-03-12T00:33:40.564Z,28.33
2023-03-12T00:34:12.242Z,29.00
2023-03-12T00:34:44.876Z,29.00
2023-03-12T00:35:16.600Z,29.00
2023-03-12T00:35:48.329Z,29.00
2023-03-12T00:36:24.847Z,29.00
2023-03-12T00:36:56.615Z,29.00
2023-03-12T00:37:28.320Z,29.00
2023-03-12T00:38:00.138Z,29.33
2023-03-12T00:38:31.816Z,30.00
2023-03-12T00:39:03.998Z,30.00
2023-03-12T00:39:35.949Z,30.00
2023-03-12T00:40:10.097Z,30.00
2023-03-12T00:40:41.840Z,31.00
2023-03-12T00:41:13.517Z,31.00
2023-03-12T00:41:45.536Z,31.00
2023-03-12T00:42:18.153Z,31.00
2023-03-12T00:42:49.865Z,31.67
2023-03-12T00:43:21.568Z,32.00
2023-03-12T00:43:53.809Z,32.00
2023-03-12T00:44:25.586Z,32.00
2023-03-12T00:44:57.293Z,32.00
2023-03-12T00:45:29.053Z,32.00
2023-03-12T00:46:00.821Z,32.33
2023-03-12T00:46:32.640Z,33.00
2023-03-12T00:47:04.865Z,33.00
2023-03-12T00:47:36.629Z,33.00
2023-03-12T00:48:09.393Z,33.00
2023-03-12T00:48:41.472Z,33.00
2023-03-12T00:49:13.094Z,33.00
2023-03-12T00:49:44.881Z,33.00
2023-03-12T00:50:16.587Z,33.00
2023-03-12T00:50:48.319Z,33.67
2023-03-12T00:51:20.293Z,34.00
2023-03-12T00:51:52.667Z,34.00
2023-03-12T00:52:24.368Z,34.00
2023-03-12T00:52:56.132Z,34.00
2023-03-12T00:53:27.808Z,34.00
2023-03-12T00:53:59.738Z,34.00
2023-03-12T00:54:31.485Z,34.00
2023-03-12T00:55:03.340Z,34.00
2023-03-12T00:55:35.270Z,34.00
2023-03-12T00:56:07.533Z,34.00
2023-03-12T00:56:39.204Z,34.00
2023-03-12T00:57:11.046Z,34.00
2023-03-12T00:57:42.885Z,34.00
2023-03-12T00:58:14.545Z,34.00
2023-03-12T00:58:46.416Z,34.00
2023-03-12T00:59:18.113Z,34.00
2023-03-12T00:59:49.815Z,34.00
2023-03-12T01:00:21.902Z,34.00
2023-03-12T01:00:53.702Z,34.00
2023-03-12T01:01:27.647Z,34.00
2023-03-12T01:01:59.345Z,34.00
2023-03-12T01:02:31.032Z,34.00
2023-03-12T01:03:02.741Z,34.00
2023-03-12T01:03:34.433Z,34.00
2023-03-12T01:04:06.202Z,34.00
2023-03-12T01:04:37.974Z,34.00
2023-03-12T01:05:12.263Z,34.00
2023-03-12T01:05:44.029Z,34.00
2023-03-12T01:06:15.701Z,34.00
2023-03-12T01:06:47.451Z,34.00
2023-03-12T01:07:19.136Z,34.00
2023-03-12T01:07:51.190Z,34.00
2023-03-12T01:08:23.861Z,33.33
2023-03-12T01:08:55.870Z,33.00
2023-03-12T01:09:27.626Z,33.00
2023-03-12T01:09:59.350Z,33.00
2023-03-12T01:10:31.130Z,33.00
2023-03-12T01:11:03.017Z,33.00
2023-03-12T01:11:36.015Z,33.00
2023-03-12T01:12:08.072Z,33.00
2023-03-12T01:12:39.904Z,33.00
2023-03-12T01:13:11.736Z,33.00
2023-03-12T01:13:43.513Z,33.00
2023-03-12T01:14:15.180Z,33.00
2023-03-12T01:14:46.892Z,33.00
2023-03-12T01:15:19.486Z,33.00
2023-03-12T01:15:51.167Z,33.00
2023-03-12T01:16:28.163Z,33.00
2023-03-12T01:16:59.940Z,32.00
2023-03-12T01:17:31.705Z,32.00
2023-03-12T01:18:03.638Z,32.00
2023-03-12T01:18:35.562Z,32.00
2023-03-12T01:19:07.230Z,32.00
2023-03-12T01:19:38.976Z,32.00
2023-03-12T01:20:11.424Z,32.00
2023-03-12T01:20:43.376Z,31.00
2023-03-12T01:21:15.092Z,31.00
2023-03-12T01:21:46.784Z,31.00
2023-03-12T01:22:18.472Z,31.00
2023-03-12T01:22:50.890Z,31.00
2023-03-12T01:23:22.577Z,31.00
2023-03-12T01:23:55.785Z,31.00
2023-03-12T01:24:27.411Z,31.00
2023-03-12T01:24:59.090Z,31.00
2023-03-12T01:25:30.803Z,31.00
2023-03-12T01:26:02.859Z,31.00
2023-03-12T01:26:34.604Z,31.00
2023-03-12T01:27:06.374Z,31.00
2023-03-12T01:27:38.108Z,31.00
2023-03-12T01:28:09.911Z,31.00
2023-03-12T01:28:41.639Z,31.67
2023-03-12T01:29:13.329Z,32.00
2023-03-12T01:29:45.004Z,32.00
2023-03-12T01:30:16.835Z,32.00
2023-03-12T01:30:48.891Z,32.00
2023-03-12T01:31:20.823Z,32.00
2023-03-12T01:31:52.969Z,32.00
2023-03-12T01:32:24.746Z,32.00
2023-03-12T01:32:56.507Z,32.00
2023-03-12T01:33:28.185Z,32.00
2023-03-12T01:33:59.889Z,32.00
2023-03-12T01:34:33.516Z,32.00
2023-03-12T01:35:06.432Z,32.00
2023-03-12T01:35:40.048Z,32.00
2023-03-12T01:36:29.188Z,32.00
2023-03-12T01:37:01.291Z,32.00
2023-03-12T01:37:33.599Z,32.00
2023-03-12T01:38:07.343Z,32.00
2023-03-12T01:38:39.016Z,32.00
2023-03-12T01:39:11.051Z,32.00
2023-03-12T01:39:42.773Z,32.00
2023-03-12T01:40:17.199Z,32.00
2023-03-12T01:40:48.893Z,32.00
2023-03-12T01:41:23.085Z,32.00
2023-03-12T01:41:54.872Z,32.00
2023-03-12T01:42:26.979Z,32.00
2023-03-12T01:42:58.785Z,32.00
2023-03-12T01:43:34.057Z,32.00
2023-03-12T01:44:06.084Z,32.00
2023-03-12T01:45:31.978Z,32.00
2023-03-12T01:46:24.259Z,32.00
2023-03-12T01:46:56.064Z,32.00
2023-03-12T01:47:31.998Z,31.33
2023-03-12T01:48:03.853Z,31.00
2023-03-12T01:48:42.856Z,31.00
2023-03-12T01:49:16.338Z,31.00
2023-03-12T01:49:50.049Z,31.00
2023-03-12T01:50:21.781Z,31.00
2023-03-12T01:50:53.535Z,31.00
2023-03-12T01:51:30.591Z,31.00
2023-03-12T01:52:06.793Z,31.00
2023-03-12T01:52:39.500Z,31.00
2023-03-12T01:53:12.192Z,31.00
2023-03-12T01:53:49.488Z,31.00
2023-03-12T01:54:42.697Z,31.00
2023-03-12T01:55:17.594Z,31.00
2023-03-12T01:55:50.648Z,31.00
2023-03-12T01:56:25.397Z,31.00
2023-03-12T01:56:58.363Z,31.67
2023-03-12T01:57:48.413Z,32.00
2023-03-12T01:58:20.296Z,32.00
2023-03-12T01:58:58.909Z,32.00
2023-03-12T01:59:41.025Z,32.00
2023-03-12T02:00:17.172Z,32.00
2023-03-12T02:00:49.070Z,31.33
2023-03-12T02:01:23.003Z,31.00
2023-03-12T02:01:54.858Z,31.00
2023-03-12T02:02:28.862Z,31.00
2023-03-12T02:03:06.125Z,31.00
2023-03-12T02:03:38.105Z,31.00
2023-03-12T02:04:11.738Z,30.33
2023-03-12T02:04:45.956Z,30.00
2023-03-12T02:06:03.268Z,30.00
2023-03-12T02:06:44.033Z,29.00
2023-03-12T02:07:17.177Z,29.00
2023-03-12T02:07:49.245Z,29.00
2023-03-12T02:08:23.759Z,29.00
2023-03-12T02:08:57.502Z,29.00
2023-03-12T02:09:32.389Z,28.33
2023-03-12T02:10:05.551Z,28.00
2023-03-12T02:10:37.759Z,28.00
2023-03-12T02:11:09.588Z,28.00
2023-03-12T02:11:41.363Z,28.00
2023-03-12T02:12:13.235Z,28.00
2023-03-12T02:12:45.189Z,28.00
2023-03-12T02:13:17.152Z,28.00
2023-03-12T02:13:48.828Z,28.00
2023-03-12T02:14:20.883Z,28.00
2023-03-12T02:14:52.784Z,28.00
2023-03-12T02:15:24.612Z,28.00
2023-03-12T02:15:56.295Z,28.00
2023-03-12T02:16:28.866Z,28.00
2023-03-12T02:17:00.864Z,28.00
2023-03-12T02:17:32.836Z,28.00
2023-03-12T02:18:09.756Z,28.00
2023-03-12T02:18:41.494Z,28.00
2023-03-12T02:19:23.525Z,28.00
2023-03-12T02:20:19.951Z,28.00
2023-03-12T02:21:30.446Z,28.00
2023-03-12T02:22:03.549Z,28.00
2023-03-12T02:22:44.170Z,28.00
2023-03-12T02:23:34.380Z,28.00
2023-03-12T02:24:43.348Z,28.00
2023-03-12T02:25:35.629Z,28.00
2023-03-12T02:26:09.081Z,28.00
2023-03-12T02:26:41.155Z,28.00
2023-03-12T02:27:13.065Z,28.00
2023-03-12T02:27:46.112Z,28.00
2023-03-12T02:28:21.899Z,28.00
2023-03-12T02:28:54.868Z,28.00
2023-03-12T02:29:32.021Z,28.00
2023-03-12T02:30:05.250Z,28.00
2023-03-12T02:30:39.259Z,28.00
2023-03-12T02:31:14.484Z,28.00
2023-03-12T02:31:53.098Z,28.00
2023-03-12T02:32:29.636Z,27.33
2023-03-12T02:33:06.171Z,27.00
2023-03-12T02:33:37.886Z,27.00
2023-03-12T02:34:09.856Z,27.00
2023-03-12T02:34:41.507Z,27.00
2023-03-12T02:35:17.068Z,27.00
2023-03-12T02:35:48.954Z,27.00
2023-03-12T02:36:20.852Z,27.00
2023-03-12T02:36:52.722Z,27.00
2023-03-12T02:37:24.460Z,27.00
2023-03-12T02:37:56.815Z,27.00
2023-03-12T02:38:49.749Z,27.00
2023-03-12T02:39:21.940Z,27.00
2023-03-12T02:40:09.817Z,27.00
2023-03-12T02:40:46.639Z,27.00
2023-03-12T02:41:34.204Z,27.00
2023-03-12T02:42:06.196Z,27.00
2023-03-12T02:42:38.073Z,27.00
2023-03-12T02:43:11.515Z,27.00
2023-03-12T02:43:47.375Z,27.00
2023-03-12T02:44:22.458Z,27.00
2023-03-12T02:44:54.304Z,27.00
2023-03-12T02:45:26.577Z,27.00
2023-03-12T02:45:58.962Z,28.00
2023-03-12T02:46:39.900Z,28.00
2023-03-12T02:47:11.936Z,28.00
2023-03-12T02:47:43.645Z,28.00
2023-03-12T02:48:15.338Z,28.00
2023-03-12T02:48:47.147Z,28.00
2023-03-12T02:49:21.412Z,28.00
2023-03-12T02:49:53.181Z,28.00
2023-03-12T02:50:24.887Z,28.00
2023-03-12T02:50:56.598Z,28.33
2023-03-12T02:51:28.338Z,29.00
2023-03-12T02:52:00.803Z,29.00
2023-03-12T02:52:35.692Z,28.67
2023-03-12T02:53:07.366Z,28.00
2023-03-12T02:53:39.653Z,28.00
2023-03-12T02:54:12.964Z,28.00
2023-03-12T02:54:44.647Z,28.00
2023-03-12T02:55:16.467Z,28.00
2023-03-12T02:55:48.291Z,28.00
2023-03-12T02:56:20.089Z,28.00
2023-03-12T02:56:52.552Z,28.00
2023-03-12T02:57:24.262Z,28.00
2023-03-12T02:57:55.940Z,28.00
2023-03-12T02:58:27.781Z,28.00
2023-03-12T02:59:01.032Z,28.00
2023-03-12T02:59:33.795Z,28.00
2023-03-12T03:00:12.564Z,28.00
2023-03-12T03:00:44.300Z,28.00
2023-03-12T03:01:16.949Z,28.00
2023-03-12T03:01:54.488Z,28.00
2023-03-12T03:02:26.219Z,28.00
2023-03-12T03:03:01.187Z,28.00
2023-03-12T03:03:32.888Z,28.33
2023-03-12T03:04:06.909Z,29.00
2023-03-12T03:04:38.782Z,29.00
2023-03-12T03:05:11.869Z,29.00
2023-03-12T03:05:43.845Z,29.00
2023-03-12T03:06:16.398Z,28.67
2023-03-12T03:06:48.715Z,28.00
2023-03-12T03:07:20.638Z,28.00
2023-03-12T03:07:52.544Z,28.00
2023-03-12T03:08:24.234Z,28.00
2023-03-12T03:08:56.138Z,28.00
2023-03-12T03:09:27.854Z,28.00
2023-03-12T03:10:04.530Z,28.00
2023-03-12T03:10:36.276Z,28.00
2023-03-12T03:11:08.018Z,28.00
2023-03-12T03:11:40.255Z,28.00
2023-03-12T03:12:11.952Z,28.00
2023-03-12T03:12:44.474Z,28.00
2023-03-12T03:13:16.196Z,28.00
2023-03-12T03:13:47.860Z,28.00
2023-03-12T03:14:19.984Z,28.00
2023-03-12T03:14:51.644Z,28.00
2023-03-12T03:15:23.799Z,28.00
2023-03-12T03:15:57.839Z,28.00
2023-03-12T03:16:29.880Z,28.00
2023-03-12T03:17:01.586Z,27.67
2023-03-12T03:17:33.296Z,27.00
2023-03-12T03:18:05.532Z,27.00
2023-03-12T03:18:37.186Z,26.00
2023-03-12T03:19:08.957Z,25.33
2023-03-12T03:19:40.805Z,25.00
2023-03-12T03:20:12.687Z,24.00
2023-03-12T03:20:45.077Z,24.00
2023-03-12T03:21:17.808Z,23.00
2023-03-12T03:21:49.594Z,23.00
2023-03-12T03:22:22.921Z,23.00
2023-03-12T03:22:54.613Z,22.00
2023-03-12T03:23:26.388Z,22.00
2023-03-12T03:23:58.114Z,22.00
2023-03-12T03:24:29.789Z,22.00
2023-03-12T03:25:01.591Z,22.00
2023-03-12T03:25:33.930Z,22.00
2023-03-12T03:26:05.690Z,22.00
2023-03-12T03:26:37.598Z,22.00
2023-03-12T03:27:09.465Z,22.00
2023-03-12T03:27:41.134Z,22.00
2023-03-12T03:28:12.818Z,22.67
2023-03-12T03:29:15.394Z,23.00
2023-03-12T03:29:47.126Z,23.00
2023-03-12T03:30:19.297Z,23.00
2023-03-12T03:30:55.531Z,23.00
2023-03-12T03:31:27.365Z,23.00
2023-03-12T03:31:59.234Z,23.00
2023-03-12T03:32:30.970Z,23.00
2023-03-12T03:33:02.680Z,23.00
2023-03-12T03:33:36.693Z,23.00
2023-03-12T03:34:08.362Z,23.00
2023-03-12T03:34:40.064Z,23.00
2023-03-12T03:35:11.942Z,23.00
2023-03-12T03:35:43.636Z,23.00
2023-03-12T03:36:15.718Z,23.00
2023-03-12T03:36:47.461Z,23.00
2023-03-12T03:37:19.211Z,23.00
2023-03-12T03:37:50.880Z,23.00
2023-03-12T03:38:24.300Z,23.00
2023-03-12T03:38:56.026Z,22.33
2023-03-12T03:39:29.569Z,22.00
2023-03-12T03:40:01.392Z,22.00
2023-03-12T03:40:33.568Z,22.00
2023-03-12T03:41:05.308Z,22.00
2023-03-12T03:41:37.373Z,22.00
2023-03-12T03:42:09.193Z,22.00
2023-03-12T03:42:41.121Z,22.00
2023-03-12T03:43:13.121Z,21.67
2023-03-12T03:43:44.896Z,21.00
2023-03-12T03:44:16.606Z,21.00
2023-03-12T03:44:48.285Z,21.00
2023-03-12T03:45:19.955Z,21.00
2023-03-12T03:46:02.818Z,20.00
2023-03-12T03:46:38.143Z,20.00
2023-03-12T03:47:09.943Z,20.00
2023-03-12T03:47:41.663Z,20.00
2023-03-12T03:48:13.880Z,20.00
2023-03-12T03:48:45.592Z,20.00
2023-03-12T03:49:17.424Z,20.00
2023-03-12T03:49:49.216Z,20.00
2023-03-12T03:50:21.097Z,20.00
2023-03-12T03:50:53.282Z,20.00
2023-03-12T03:51:24.961Z,20.00
2023-03-12T03:51:56.764Z,20.00
2023-03-12T03:52:28.465Z,20.00
2023-03-12T03:53:00.132Z,20.00
2023-03-12T03:53:32.761Z,20.00
2023-03-12T03:54:04.626Z,20.33
2023-03-12T03:54:36.427Z,21.00
2023-03-12T03:55:09.036Z,21.00
2023-03-12T03:55:41.106Z,21.00
2023-03-12T03:56:15.846Z,21.33
2023-03-12T03:56:48.448Z,22.00
2023-03-12T03:57:20.125Z,22.00
2023-03-12T03:57:52.007Z,22.00
2023-03-12T03:58:23.723Z,22.67
2023-03-12T03:58:55.399Z,23.00
2023-03-12T03:59:27.144Z,23.00
2023-03-12T04:00:03.657Z,23.00
2023-03-12T04:00:35.689Z,23.00
2023-03-12T04:01:07.411Z,23.33
2023-03-12T04:01:39.355Z,24.00
2023-03-12T04:02:11.020Z,24.00
2023-03-12T04:02:42.712Z,24.00
2023-03-12T04:03:14.537Z,24.00
2023-03-12T04:03:46.442Z,24.00
2023-03-12T04:04:18.441Z,24.00
2023-03-12T04:04:50.568Z,24.00
2023-03-12T04:05:22.397Z,24.00
2023-03-12T04:05:56.188Z,24.00
2023-03-12T04:06:29.930Z,24.00
2023-03-12T04:07:01.624Z,24.00
2023-03-12T04:07:33.429Z,24.00
2023-03-12T04:08:06.273Z,24.00
2023-03-12T04:08:38.788Z,24.00
2023-03-12T04:09:11.150Z,24.00
2023-03-12T04:09:43.626Z,24.00
2023-03-12T04:10:15.611Z,23.33
2023-03-12T04:10:47.276Z,23.00
2023-03-12T04:11:21.788Z,23.00
2023-03-12T04:11:53.559Z,22.67
2023-03-12T04:12:26.141Z,22.00
2023-03-12T04:12:58.309Z,22.00
2023-03-12T04:13:29.954Z,22.00
2023-03-12T04:14:01.680Z,21.67
2023-03-12T04:14:33.612Z,21.00
2023-03-12T04:15:06.334Z,21.00
2023-03-12T04:15:38.173Z,21.00
2023-03-12T04:16:10.411Z,20.33
2023-03-12T04:16:42.162Z,20.00
2023-03-12T04:17:13.871Z,20.00
2023-03-12T04:17:45.857Z,20.00
2023-03-12T04:18:18.003Z,20.00
2023-03-12T04:18:49.849Z,19.00
2023-03-12T04:19:21.596Z,19.00
2023-03-12T04:19:53.629Z,19.00
2023-03-12T04:20:25.334Z,19.00
2023-03-12T04:20:56.993Z,19.00
2023-03-12T04:21:28.731Z,19.00
2023-03-12T04:22:00.469Z,19.00
2023-03-12T04:22:32.203Z,19.00
2023-03-12T04:23:03.891Z,19.00
2023-03-12T04:23:36.912Z,19.00
2023-03-12T04:24:14.864Z,19.00
2023-03-12T04:24:46.540Z,19.00
2023-03-12T04:25:18.515Z,19.00
2023-03-12T04:25:50.298Z,19.00
2023-03-12T04:26:22.064Z,19.00
2023-03-12T04:26:53.802Z,19.00
2023-03-12T04:27:25.894Z,19.00
2023-03-12T04:27:57.622Z,19.00
2023-03-12T04:28:29.362Z,19.00
2023-03-12T04:29:01.275Z,19.00
2023-03-12T04:29:32.976Z,19.00
2023-03-12T04:30:05.072Z,19.00
2023-03-12T04:30:38.381Z,19.00
2023-03-12T04:31:11.887Z,19.00
2023-03-12T04:31:43.814Z,19.00
2023-03-12T04:32:16.117Z,19.00
2023-03-12T04:32:48.092Z,19.00
2023-03-12T04:33:19.757Z,19.00
2023-03-12T04:33:51.443Z,19.00
2023-03-12T04:34:23.114Z,19.00
2023-03-12T04:34:54.869Z,19.00
2023-03-12T04:35:26.575Z,19.00
2023-03-12T04:35:59.274Z,19.00
2023-03-12T04:36:31.424Z,19.00
2023-03-12T04:37:03.703Z,19.00
2023-03-12T04:37:35.790Z,19.00
2023-03-12T04:38:07.532Z,19.00
2023-03-12T04:38:39.288Z,19.00
2023-03-12T04:39:11.191Z,19.00
2023-03-12T04:39:44.816Z,19.67
2023-03-12T04:40:20.159Z,20.00
2023-03-12T04:41:09.249Z,20.00
2023-03-12T04:41:40.942Z,20.00
2023-03-12T04:42:12.809Z,20.00
2023-03-12T04:42:44.659Z,20.00
2023-03-12T04:43:20.139Z,20.00
2023-03-12T04:43:52.058Z,20.00
2023-03-12T04:44:23.869Z,20.00
2023-03-12T04:44:55.656Z,20.00
2023-03-12T04:45:27.330Z,20.00
2023-03-12T04:45:59.637Z,20.00
2023-03-12T04:46:32.863Z,20.00
2023-03-12T04:47:04.829Z,20.00
2023-03-12T04:47:36.546Z,19.00
2023-03-12T04:48:08.271Z,19.00
2023-03-12T04:48:39.984Z,19.00
2023-03-12T04:49:11.852Z,19.00
2023-03-12T04:49:44.197Z,19.00
2023-03-12T04:50:15.931Z,19.00
2023-03-12T04:50:47.735Z,18.33
2023-03-12T04:51:19.635Z,18.00
2023-03-12T04:51:51.504Z,18.00
2023-03-12T04:52:23.206Z,18.00
2023-03-12T04:52:54.922Z,18.00
2023-03-12T04:53:26.814Z,18.00
2023-03-12T04:53:59.614Z,17.33
2023-03-12T04:54:32.022Z,17.00
2023-03-12T04:55:04.333Z,17.00
2023-03-12T04:55:36.026Z,17.00
2023-03-12T04:56:07.938Z,17.00
2023-03-12T04:56:39.667Z,17.00
2023-03-12T04:57:11.370Z,17.00
2023-03-12T04:57:43.301Z,17.00
2023-03-12T04:58:16.360Z,17.00
2023-03-12T04:58:48.587Z,17.00
2023-03-12T04:59:20.276Z,17.00
2023-03-12T04:59:52.381Z,16.67
2023-03-12T05:00:24.176Z,16.00
2023-03-12T05:00:55.927Z,16.00
2023-03-12T05:01:28.996Z,16.00
2023-03-12T05:02:00.739Z,16.00
2023-03-12T05:02:32.453Z,16.00
2023-03-12T05:03:04.225Z,16.00
2023-03-12T05:03:36.130Z,16.00
2023-03-12T05:04:08.106Z,15.00
2023-03-12T05:04:39.855Z,15.00
2023-03-12T05:05:11.964Z,15.00
2023-03-12T05:05:44.025Z,14.33
2023-03-12T05:06:15.724Z,14.00
2023-03-12T05:06:47.404Z,14.00
2023-03-12T05:07:19.925Z,13.33
2023-03-12T05:07:52.065Z,13.00
2023-03-12T05:08:23.742Z,13.00
2023-03-12T05:08:55.466Z,13.00
2023-03-12T05:09:27.205Z,13.00
2023-03-12T05:09:58.898Z,12.33
2023-03-12T05:10:30.929Z,12.00
2023-03-12T05:11:02.801Z,12.00
2023-03-12T05:11:34.516Z,12.00
2023-03-12T05:12:06.754Z,11.00
2023-03-12T05:12:39.528Z,11.00
2023-03-12T05:13:21.808Z,11.00
2023-03-12T05:13:54.115Z,10.00
2023-03-12T05:14:26.323Z,10.00
2023-03-12T05:14:58.067Z,9.67
2023-03-12T05:15:29.760Z,9.00
2023-03-12T05:16:01.532Z,9.00
2023-03-12T05:16:33.302Z,9.00
2023-03-12T05:17:05.430Z,9.00
2023-03-12T05:17:37.229Z,8.67
2023-03-12T05:18:08.972Z,8.00
2023-03-12T05:18:41.011Z,8.00
2023-03-12T05:19:12.888Z,8.00
2023-03-12T05:19:45.713Z,8.00
2023-03-12T05:20:20.319Z,8.00
2023-03-12T05:21:18.028Z,8.00
2023-03-12T05:21:49.865Z,8.00
2023-03-12T05:22:21.590Z,8.00
2023-03-12T05:22:53.299Z,8.00
2023-03-12T05:23:24.979Z,8.00
2023-03-12T05:23:56.822Z,8.00
2023-03-12T05:24:28.667Z,8.00
2023-03-12T05:25:02.344Z,8.00
2023-03-12T05:25:34.186Z,8.00
2023-03-12T05:26:06.855Z,8.00
2023-03-12T05:26:38.846Z,8.00
2023-03-12T05:27:11.641Z,8.00
2023-03-12T05:27:43.388Z,8.00
2023-03-12T05:28:15.089Z,8.00
2023-03-12T05:28:46.924Z,8.00
2023-03-12T05:29:18.617Z,8.00
2023-03-12T05:29:50.314Z,8.00
2023-03-12T05:30:22.438Z,8.00
2023-03-12T05:30:58.625Z,8.00
2023-03-12T05:31:35.510Z,7.33
2023-03-12T05:32:10.349Z,7.00
2023-03-12T05:32:42.056Z,7.00
2023-03-12T05:33:13.802Z,7.00
2023-03-12T05:33:45.965Z,7.00
2023-03-12T05:34:17.640Z,7.00
2023-03-12T05:34:49.440Z,7.00
2023-03-12T05:35:21.167Z,7.00
2023-03-12T05:35:53.382Z,7.00
2023-03-12T05:36:25.529Z,7.00
2023-03-12T05:36:58.242Z,7.00
2023-03-12T05:37:30.901Z,7.00
2023-03-12T05:38:02.637Z,7.00
2023-03-12T05:38:34.304Z,7.00
2023-03-12T05:39:06.096Z,7.00
2023-03-12T05:39:38.218Z,7.00
2023-03-12T05:40:12.032Z,7.00
2023-03-12T05:40:44.002Z,7.00
2023-03-12T05:41:22.380Z,7.00
2023-03-12T05:41:56.942Z,7.00
2023-03-12T05:42:28.633Z,7.00
2023-03-12T05:43:00.307Z,7.00
2023-03-12T05:43:33.040Z,7.00
2023-03-12T05:44:04.809Z,7.00
2023-03-12T05:44:36.507Z,7.00
2023-03-12T05:45:08.777Z,7.00
2023-03-12T05:45:40.547Z,7.00
2023-03-12T05:46:13.060Z,7.00
2023-03-12T05:46:45.138Z,7.00
2023-03-12T05:47:17.181Z,7.00
2023-03-12T05:47:48.936Z,7.00
2023-03-12T05:48:20.667Z,7.00
2023-03-12T05:48:52.463Z,7.00
2023-03-12T05:49:24.242Z,7.00
2023-03-12T05:49:55.947Z,7.00
2023-03-12T05:50:27.702Z,7.00
2023-03-12T05:50:59.505Z,7.00
2023-03-12T05:51:31.242Z,7.00
2023-03-12T05:52:02.937Z,7.00
2023-03-12T05:52:34.645Z,7.00
2023-03-12T05:53:06.416Z,7.00
2023-03-12T05:53:38.276Z,7.00
2023-03-12T05:54:10.523Z,7.00
2023-03-12T05:54:42.469Z,7.00
2023-03-12T05:55:14.159Z,7.00
2023-03-12T05:55:45.842Z,6.33
2023-03-12T05:56:18.473Z,6.00
2023-03-12T05:56:50.216Z,6.00
2023-03-12T05:57:21.901Z,6.00
2023-03-12T05:57:53.605Z,6.00
2023-03-12T05:58:25.326Z,6.00
2023-03-12T05:58:57.154Z,6.00
2023-03-12T05:59:29.550Z,6.00
2023-03-12T06:00:01.302Z,6.00
2023-03-12T06:00:38.001Z,6.00
2023-03-12T06:01:22.567Z,6.00
2023-03-12T06:01:54.308Z,6.00
2023-03-12T06:02:26.106Z,6.00
2023-03-12T06:02:58.034Z,6.00
2023-03-12T06:03:29.780Z,6.00
2023-03-12T06:04:01.471Z,6.00
2023-03-12T06:04:33.170Z,6.00
2023-03-12T06:05:05.477Z,6.00
2023-03-12T06:05:38.119Z,6.00
2023-03-12T06:06:10.927Z,6.00
2023-03-12T06:06:42.695Z,6.00
2023-03-12T06:07:14.387Z,6.00
2023-03-12T06:07:46.146Z,6.00
2023-03-12T06:08:17.837Z,6.00
2023-03-12T06:08:51.128Z,6.00
2023-03-12T06:09:23.048Z,6.00
2023-03-12T06:09:54.786Z,6.00
2023-03-12T06:10:26.594Z,6.00
2023-03-12T06:10:58.281Z,6.00
2023-03-12T06:11:30.114Z,6.00
2023-03-12T06:12:01.783Z,6.00
2023-03-12T06:12:33.542Z,6.00
2023-03-12T06:13:05.455Z,6.00
2023-03-12T06:13:37.167Z,6.00
2023-03-12T06:14:09.821Z,6.00
2023-03-12T06:14:41.593Z,6.00
2023-03-12T06:15:13.277Z,6.00
2023-03-12T06:15:44.940Z,6.00
2023-03-12T06:16:20.819Z,6.00
2023-03-12T06:16:52.668Z,5.67
2023-03-12T06:17:24.504Z,5.00
2023-03-12T06:17:56.289Z,5.00
2023-03-12T06:18:28.027Z,5.00
2023-03-12T06:19:02.143Z,5.00
2023-03-12T06:19:33.846Z,5.00
2023-03-12T06:20:06.498Z,5.00
2023-03-12T06:20:38.164Z,5.00
2023-03-12T06:21:18.591Z,5.00
2023-03-12T06:21:55.252Z,5.00
2023-03-12T06:22:27.040Z,5.00
2023-03-12T06:22:58.724Z,5.00
2023-03-12T06:23:30.403Z,5.00
2023-03-12T06:24:03.185Z,5.00
2023-03-12T06:24:34.878Z,5.00
2023-03-12T06:25:07.127Z,5.00
2023-03-12T06:25:38.803Z,5.00
2023-03-12T06:26:12.728Z,5.00
2023-03-12T06:26:44.509Z,5.00
2023-03-12T06:27:17.152Z,5.00
2023-03-12T06:27:48.881Z,5.00
2023-03-12T06:28:20.578Z,5.00
2023-03-12T06:28:53.566Z,5.00
2023-03-12T06:29:25.366Z,5.00
2023-03-12T06:29:57.402Z,5.00
2023-03-12T06:30:29.085Z,5.00
2023-03-12T06:31:01.741Z,5.00
2023-03-12T06:31:33.610Z,5.00
2023-03-12T06:32:05.440Z,5.00
2023-03-12T06:32:37.184Z,5.00
2023-03-12T06:33:09.322Z,5.00
2023-03-12T06:33:41.322Z,5.00
2023-03-12T06:34:13.116Z,5.00
2023-03-12T06:34:45.300Z,5.00
2023-03-12T06:35:17.207Z,5.00
2023-03-12T06:35:49.072Z,5.00
2023-03-12T06:36:23.110Z,5.00
2023-03-12T06:36:54.844Z,5.00
2023-03-12T06:37:27.906Z,5.00
2023-03-12T06:37:59.733Z,5.00
2023-03-12T06:38:31.591Z,5.00
2023-03-12T06:39:06.264Z,5.00
2023-03-12T06:39:38.751Z,5.00
2023-03-12T06:40:13.026Z,5.00
2023-03-12T06:40:57.069Z,5.00
2023-03-12T06:41:28.963Z,5.00
2023-03-12T06:42:00.679Z,5.00
2023-03-12T06:42:32.427Z,5.00
2023-03-12T06:43:04.176Z,5.00
2023-03-12T06:43:37.571Z,5.00
2023-03-12T06:44:09.383Z,5.00
2023-03-12T06:44:41.685Z,5.00
2023-03-12T06:45:13.649Z,5.00
2023-03-12T06:45:45.625Z,5.00
2023-03-12T06:46:22.478Z,5.00
2023-03-12T06:46:54.338Z,4.33
2023-03-12T06:47:26.021Z,4.00
2023-03-12T06:47:57.733Z,4.00
2023-03-12T06:48:33.594Z,4.00
2023-03-12T06:49:05.710Z,4.00
2023-03-12T06:49:38.226Z,4.00
2023-03-12T06:50:10.476Z,4.00
2023-03-12T06:50:42.210Z,4.00
2023-03-12T06:51:16.004Z,4.00
2023-03-12T06:51:47.739Z,4.00
2023-03-12T06:52:19.614Z,4.00
2023-03-12T06:52:51.320Z,4.00
2023-03-12T06:53:23.584Z,4.00
2023-03-12T06:53:55.317Z,4.00
2023-03-12T06:54:27.023Z,4.00
2023-03-12T06:54:58.695Z,4.00
2023-03-12T06:55:30.400Z,4.00
2023-03-12T06:56:02.195Z,4.00
2023-03-12T06:56:34.008Z,3.67
2023-03-12T06:57:05.741Z,3.00
2023-03-12T06:57:37.462Z,3.00
2023-03-12T06:58:09.187Z,3.00
2023-03-12T06:58:41.581Z,3.00
2023-03-12T06:59:13.267Z,3.00
2023-03-12T06:59:44.975Z,3.00
2023-03-12T07:00:16.926Z,3.00
2023-03-12T07:00:48.641Z,3.00
2023-03-12T07:01:20.563Z,3.00
2023-03-12T07:01:52.294Z,3.00
2023-03-12T07:02:24.077Z,3.00
2023-03-12T07:02:57.123Z,3.00
2023-03-12T07:03:28.869Z,3.00
2023-03-12T07:04:00.621Z,3.00
2023-03-12T07:04:32.320Z,3.00
2023-03-12T07:05:04.325Z,3.00
2023-03-12T07:05:36.084Z,3.00
2023-03-12T07:06:15.080Z,3.00
2023-03-12T07:06:50.591Z,3.00
2023-03-12T07:07:22.687Z,3.00
2023-03-12T07:07:54.424Z,3.00
2023-03-12T07:08:30.966Z,3.00
2023-03-12T07:09:02.763Z,3.00
2023-03-12T07:09:34.427Z,2.67
2023-03-12T07:10:06.732Z,2.00